createdAt,value
2023-03-13T00:01:51.508Z,6.70
2023-03-13T00:04:21.610Z,6.40
2023-03-13T00:06:51.202Z,6.30
2023-03-13T00:09:21.007Z,6.30
2023-03-13T00:11:53.241Z,6.80
2023-03-13T00:14:22.830Z,5.87
2023-03-13T00:16:52.454Z,6.63
2023-03-13T00:19:22.188Z,8.33
2023-03-13T00:21:51.873Z,7.10
2023-03-13T00:24:21.492Z,7.37
2023-03-13T00:26:53.713Z,6.17
2023-03-13T00:29:23.348Z,5.60
2023-03-13T00:31:53.143Z,6.47
2023-03-13T00:34:22.861Z,7.53
2023-03-13T00:36:52.499Z,6.20
2023-03-13T00:39:22.095Z,6.37
2023-03-13T00:41:54.370Z,6.43
2023-03-13T00:44:24.116Z,6.63
2023-03-13T00:46:53.793Z,6.47
2023-03-13T00:49:23.405Z,6.33
2023-03-13T00:51:53.035Z,6.00
2023-03-13T00:54:22.778Z,5.47
2023-03-13T00:56:55.219Z,5.60
2023-03-13T00:59:24.903Z,4.97
2023-03-13T01:01:54.756Z,5.80
2023-03-13T01:04:24.636Z,5.80
2023-03-13T01:06:54.221Z,5.73
2023-03-13T01:09:23.853Z,5.50
2023-03-13T01:11:56.302Z,5.10
2023-03-13T01:14:26.031Z,5.50
2023-03-13T01:16:56.766Z,6.30
2023-03-13T01:19:27.362Z,5.40
2023-03-13T01:21:57.119Z,5.67
2023-03-13T01:24:27.778Z,5.10
2023-03-13T01:27:01.088Z,5.20
2023-03-13T01:29:30.922Z,4.97
2023-03-13T01:32:00.531Z,5.80
2023-03-13T01:34:30.188Z,5.27
2023-03-13T01:37:00.665Z,5.30
2023-03-13T01:39:30.437Z,5.63
2023-03-13T01:42:02.730Z,4.60
2023-03-13T01:44:32.601Z,6.10
2023-03-13T01:47:02.231Z,6.37
2023-03-13T01:49:57.368Z,6.43
2023-03-13T01:52:52.184Z,4.90
2023-03-13T01:55:26.517Z,4.90
2023-03-13T01:57:59.565Z,4.80
2023-03-13T02:00:34.344Z,4.10
2023-03-13T02:03:09.171Z,5.30
2023-03-13T02:05:39.773Z,4.70
2023-03-13T02:08:14.463Z,6.10
2023-03-13T02:10:52.587Z,5.90
2023-03-13T02:13:25.296Z,4.80
2023-03-13T02:15:55.121Z,4.70
2023-03-13T02:18:26.096Z,5.77
2023-03-13T02:21:01.141Z,4.70
2023-03-13T02:23:34.297Z,4.77
2023-03-13T02:26:06.884Z,4.93
2023-03-13T02:28:39.772Z,5.20
2023-03-13T02:31:15.933Z,4.97
2023-03-13T02:33:46.536Z,5.10
2023-03-13T02:36:20.520Z,5.17
2023-03-13T02:38:57.330Z,4.13
2023-03-13T02:41:31.737Z,5.63
2023-03-13T02:44:02.606Z,6.07
2023-03-13T02:46:32.600Z,5.30
2023-03-13T02:49:13.875Z,4.60
2023-03-13T02:51:47.557Z,4.10
2023-03-13T02:54:21.984Z,6.00
2023-03-13T02:56:58.713Z,5.07
2023-03-13T02:59:28.601Z,4.57
2023-03-13T03:01:58.456Z,5.10
2023-03-13T03:04:29.833Z,4.40
2023-03-13T03:06:59.779Z,4.33
2023-03-13T03:09:29.618Z,5.60
2023-03-13T03:12:06.676Z,5.23
2023-03-13T03:14:36.561Z,4.57
2023-03-13T03:17:06.344Z,4.37
2023-03-13T03:19:36.075Z,4.00
2023-03-13T03:22:05.824Z,5.13
2023-03-13T03:24:36.177Z,4.73
2023-03-13T03:27:10.041Z,5.20
2023-03-13T03:29:45.981Z,4.10
2023-03-13T03:32:15.733Z,4.40
2023-03-13T03:34:46.035Z,4.70
2023-03-13T03:37:16.329Z,4.13
2023-03-13T03:39:46.022Z,4.37
2023-03-13T03:42:18.299Z,4.57
2023-03-13T03:44:47.959Z,4.40
2023-03-13T03:47:18.070Z,5.20
2023-03-13T03:49:50.200Z,3.70
2023-03-13T03:52:20.091Z,4.47
2023-03-13T03:54:50.632Z,5.60
2023-03-13T03:57:23.760Z,5.03
2023-03-13T03:59:53.458Z,5.37
2023-03-13T04:02:25.031Z,3.83
2023-03-13T04:04:55.323Z,3.77
2023-03-13T04:07:31.021Z,4.00
2023-03-13T04:10:01.803Z,4.53
2023-03-13T04:12:41.484Z,4.40
2023-03-13T04:15:11.941Z,3.97
2023-03-13T04:17:41.883Z,3.37
2023-03-13T04:20:14.642Z,4.33
2023-03-13T04:26:03.843Z,4.13
2023-03-13T04:28:36.784Z,4.20
2023-03-13T04:31:09.399Z,3.50
2023-03-13T04:34:06.173Z,4.40
2023-03-13T04:36:54.570Z,5.47
2023-03-13T04:39:43.792Z,3.77
2023-03-13T04:42:24.050Z,4.37
2023-03-13T04:45:22.213Z,4.63
2023-03-13T04:48:02.650Z,4.63
2023-03-13T04:51:01.998Z,3.97
2023-03-13T04:53:50.442Z,4.37
2023-03-13T04:56:43.758Z,3.70
2023-03-13T04:59:34.950Z,3.93
2023-03-13T05:02:10.044Z,3.70
2023-03-13T05:04:52.304Z,3.20
2023-03-13T05:07:40.821Z,3.00
2023-03-13T05:10:33.452Z,3.93
2023-03-13T05:13:28.558Z,2.37
2023-03-13T05:16:30.462Z,3.13
2023-03-13T05:19:25.502Z,3.30
2023-03-13T05:22:24.387Z,3.03
2023-03-13T05:25:29.593Z,3.00
2023-03-13T05:28:19.478Z,2.70
2023-03-13T05:30:51.733Z,2.70
2023-03-13T05:33:59.740Z,2.63
2023-03-13T05:37:05.772Z,2.40
2023-03-13T05:39:47.093Z,2.47
2023-03-13T05:42:28.171Z,2.87
2023-03-13T05:45:23.485Z,2.60
2023-03-13T05:48:12.994Z,2.37
2023-03-13T05:51:17.616Z,2.90
2023-03-13T05:53:55.818Z,2.30
2023-03-13T05:56:38.738Z,2.10
2023-03-13T05:59:17.896Z,2.30
2023-03-13T06:02:03.694Z,2.17
2023-03-13T06:04:42.975Z,2.20
2023-03-13T06:07:13.135Z,1.77
2023-03-13T06:09:45.481Z,2.13
2023-03-13T06:12:16.340Z,2.47
2023-03-13T06:14:45.919Z,2.03
2023-03-13T06:17:25.622Z,2.07
2023-03-13T06:19:55.251Z,2.27
2023-03-13T06:22:24.911Z,2.83
2023-03-13T06:24:57.145Z,2.20
2023-03-13T06:27:26.759Z,2.10
2023-03-13T06:29:56.534Z,2.87
2023-03-13T06:32:26.260Z,2.23
2023-03-13T06:34:55.909Z,2.33
2023-03-13T06:37:25.647Z,2.67
2023-03-13T06:39:57.864Z,2.00
2023-03-13T06:42:27.510Z,1.77
2023-03-13T06:44:57.089Z,2.17
2023-03-13T06:47:26.786Z,1.90
2023-03-13T06:49:56.376Z,2.50
2023-03-13T06:52:37.462Z,2.40
2023-03-13T06:55:14.671Z,2.73
2023-03-13T06:57:44.311Z,2.67
2023-03-13T07:00:15.107Z,2.80
2023-03-13T07:02:44.792Z,2.50
2023-03-13T07:05:14.839Z,2.80
2023-03-13T07:07:44.968Z,2.93
2023-03-13T07:10:17.191Z,2.37
2023-03-13T07:12:46.864Z,2.57
2023-03-13T07:15:16.641Z,2.97
2023-03-13T07:17:46.251Z,2.70
2023-03-13T07:20:17.790Z,2.40
2023-03-13T07:22:47.581Z,3.03
2023-03-13T07:25:20.034Z,2.60
2023-03-13T07:27:53.291Z,2.47
2023-03-13T07:30:23.103Z,3.40
2023-03-13T07:32:52.840Z,3.43
2023-03-13T07:35:22.538Z,4.17
2023-03-13T07:37:52.173Z,4.63
2023-03-13T07:40:24.454Z,4.23
2023-03-13T07:42:54.154Z,4.00
2023-03-13T07:45:23.820Z,4.70
2023-03-13T07:47:53.491Z,4.87
2023-03-13T07:50:23.217Z,3.77
2023-03-13T07:52:52.906Z,4.50
2023-03-13T07:55:25.135Z,4.67
2023-03-13T07:57:54.740Z,4.10
2023-03-13T08:00:25.540Z,5.03
2023-03-13T08:02:55.144Z,5.00
2023-03-13T08:05:24.779Z,5.27
2023-03-13T08:07:54.383Z,5.27
2023-03-13T08:10:26.563Z,5.23
2023-03-13T08:12:56.134Z,4.33
2023-03-13T08:15:26.400Z,4.83
2023-03-13T08:17:56.044Z,4.53
2023-03-13T08:20:26.087Z,4.40
2023-03-13T08:22:58.391Z,4.77
2023-03-13T08:25:30.665Z,5.00
2023-03-13T08:28:02.403Z,4.50
2023-03-13T08:30:32.274Z,3.70
2023-03-13T08:33:01.963Z,3.53
2023-03-13T08:35:32.236Z,3.70
2023-03-13T08:38:02.802Z,4.00
2023-03-13T08:40:35.165Z,3.13
2023-03-13T08:43:04.935Z,3.20
2023-03-13T08:45:34.656Z,3.00
2023-03-13T08:48:04.380Z,2.83
2023-03-13T08:50:34.121Z,2.50
2023-03-13T08:53:03.798Z,3.20
2023-03-13T08:55:36.129Z,2.80
2023-03-13T08:58:05.921Z,2.70
2023-03-13T09:00:35.920Z,2.90
2023-03-13T09:03:05.702Z,2.60
2023-03-13T09:05:52.957Z,2.77
2023-03-13T09:08:24.784Z,2.70
2023-03-13T09:11:02.197Z,2.47
2023-03-13T09:13:33.917Z,2.43
2023-03-13T09:16:05.679Z,2.40
2023-03-13T09:18:36.555Z,2.27
2023-03-13T09:21:11.900Z,2.90
2023-03-13T09:23:41.803Z,2.60
2023-03-13T09:26:15.567Z,1.90
2023-03-13T09:28:45.337Z,2.00
2023-03-13T09:31:16.861Z,2.47
2023-03-13T09:33:48.198Z,2.23
2023-03-13T09:36:21.521Z,2.60
2023-03-13T09:38:52.684Z,2.40
2023-03-13T09:41:34.068Z,2.27
2023-03-13T09:44:10.333Z,2.60
2023-03-13T09:46:46.465Z,2.80
2023-03-13T09:49:20.932Z,2.30
2023-03-13T09:51:56.215Z,2.97
2023-03-13T09:54:29.190Z,2.63
2023-03-13T09:57:10.110Z,2.20
2023-03-13T09:59:48.658Z,2.97
2023-03-13T10:02:27.350Z,2.50
2023-03-13T10:05:05.408Z,2.90
2023-03-13T10:07:35.199Z,2.53
2023-03-13T10:10:07.913Z,3.43
2023-03-13T10:12:44.630Z,2.60
2023-03-13T10:15:38.760Z,3.10
2023-03-13T10:18:20.465Z,2.43
2023-03-13T10:20:52.660Z,3.13
2023-03-13T10:23:30.111Z,3.30
2023-03-13T10:25:59.983Z,3.87
2023-03-13T10:28:32.542Z,3.33
2023-03-13T10:31:10.941Z,2.87
2023-03-13T10:33:41.221Z,3.00
2023-03-13T10:36:13.573Z,3.00
2023-03-13T10:38:52.676Z,3.37
2023-03-13T10:41:28.151Z,3.10
2023-03-13T10:44:03.954Z,2.77
2023-03-13T10:46:35.732Z,2.80
2023-03-13T10:49:09.079Z,2.57
2023-03-13T10:51:40.941Z,2.77
2023-03-13T10:54:19.636Z,2.77
2023-03-13T10:56:49.985Z,2.83
2023-03-13T10:59:29.365Z,2.77
2023-03-13T11:02:03.917Z,2.10
2023-03-13T11:04:37.693Z,2.70
2023-03-13T11:07:09.414Z,2.80
2023-03-13T11:09:39.352Z,2.20
2023-03-13T11:12:14.799Z,2.90
2023-03-13T11:14:48.775Z,2.27
2023-03-13T11:17:33.038Z,2.03
2023-03-13T11:20:11.216Z,2.80
2023-03-13T11:22:54.285Z,2.60
2023-03-13T11:25:36.714Z,2.30
2023-03-13T11:28:22.932Z,2.33
2023-03-13T11:31:06.469Z,2.07
2023-03-13T11:33:47.532Z,1.67
2023-03-13T11:36:25.842Z,2.30
2023-03-13T11:38:59.483Z,1.70
2023-03-13T11:41:39.166Z,2.23
2023-03-13T11:44:32.367Z,2.43
2023-03-13T11:47:23.454Z,1.73
2023-03-13T11:50:07.786Z,1.87
2023-03-13T11:52:47.383Z,3.33
2023-03-13T11:55:44.044Z,2.70
2023-03-13T11:58:36.614Z,1.97
2023-03-13T12:01:12.081Z,2.40
2023-03-13T12:03:57.199Z,1.83
2023-03-13T12:06:32.323Z,1.60
2023-03-13T12:09:09.627Z,1.87
2023-03-13T12:11:44.279Z,1.80
2023-03-13T12:14:20.344Z,1.87
2023-03-13T12:17:26.159Z,1.77
2023-03-13T12:20:53.499Z,1.90
2023-03-13T12:26:46.054Z,1.50
2023-03-13T12:29:20.245Z,1.30
2023-03-13T12:31:55.787Z,1.70
2023-03-13T12:34:34.933Z,1.47
2023-03-13T12:37:26.922Z,1.60
2023-03-13T12:40:07.404Z,1.37
2023-03-13T12:42:58.824Z,1.47
2023-03-13T12:45:42.464Z,1.27
2023-03-13T12:49:16.497Z,1.63
2023-03-13T12:56:33.653Z,1.50
2023-03-13T13:04:03.218Z,1.50
2023-03-13T13:07:13.112Z,1.40
2023-03-13T13:10:18.589Z,1.70
2023-03-13T13:12:55.772Z,1.40
2023-03-13T13:15:30.301Z,1.40
2023-03-13T13:18:36.510Z,1.33
2023-03-13T15:05:43.671Z,1.10
2023-03-13T15:16:46.613Z,1.10
2023-03-13T15:40:24.473Z,1.20
2023-03-13T15:43:02.884Z,0.90
2023-03-13T15:45:36.679Z,0.90
2023-03-13T16:05:29.167Z,1.13
2023-03-13T16:11:05.378Z,1.00
2023-03-13T16:17:00.247Z,0.90
2023-03-13T16:27:02.065Z,5.87
2023-03-13T16:34:11.240Z,1.20
2023-03-13T16:38:08.392Z,0.80
2023-03-13T17:04:04.520Z,0.90
2023-03-13T17:06:36.283Z,0.90
2023-03-13T17:09:07.494Z,1.10
2023-03-13T17:11:38.829Z,1.20
2023-03-13T17:14:08.614Z,1.60
2023-03-13T17:16:44.141Z,1.20
2023-03-13T17:27:57.507Z,1.27
2023-03-13T17:54:40.950Z,1.20
2023-03-13T18:01:03.772Z,1.40
2023-03-13T22:36:50.536Z,1.40
2023-03-13T22:39:21.091Z,1.80
2023-03-13T22:41:58.510Z,2.10
